Time;durP1;ratioP1;P1;durP2;ratioP2;P2;SDS_P1;SDS_P2;PMS_P1;PMS_P2;Temp;Humidity;BMP_temperature;BMP_pressure;BME280_temperature;BME280_humidity;BME280_pressure;Samples;Min_cycle;Max_cycle;Signal;HPM_P1;HPM_P2
2021/12/17 00:00:45;;;;;;;8.32;6.13;;;;;;;18.16;50.54;104128.59;5005728;28;20049;-55
2021/12/17 00:03:19;;;;;;;9.50;6.18;;;;;;;18.16;50.32;104125.06;5005524;28;20046;-56
2021/12/17 00:08:16;;;;;;;10.00;6.45;;;;;;;18.14;50.43;104140.38;5003713;28;20111;-55
2021/12/17 00:10:44;;;;;;;8.52;6.32;;;;;;;18.14;50.43;104141.25;5003355;28;20050;-55
2021/12/17 00:13:11;;;;;;;9.80;6.38;;;;;;;18.13;50.48;104146.66;5002325;28;20050;-57
2021/12/17 00:15:39;;;;;;;10.13;6.72;;;;;;;18.13;50.16;104142.19;5003876;28;20064;-57
2021/12/17 00:18:14;;;;;;;9.13;5.95;;;;;;;18.13;50.42;104138.63;5004374;28;20137;-57
2021/12/17 00:51:55;;;;;;;7.65;5.18;;;;;;;18.02;50.61;104125.72;4999029;28;20042;-56
2021/12/17 00:54:24;;;;;;;8.07;5.03;;;;;;;18.02;50.53;104125.72;5004504;28;20060;-55
2021/12/17 00:56:53;;;;;;;8.63;5.68;;;;;;;18.00;50.46;104128.47;5001853;28;20137;-55
2021/12/17 00:59:20;;;;;;;7.90;5.80;;;;;;;17.98;50.55;104126.81;5005130;28;20514;-56
2021/12/17 01:01:48;;;;;;;7.13;5.32;;;;;;;17.99;50.71;104126.75;5005238;28;20050;-56
2021/12/17 01:04:15;;;;;;;8.05;5.63;;;;;;;17.99;50.73;104136.59;5004992;28;20042;-57
2021/12/17 01:06:42;;;;;;;7.55;4.95;;;;;;;17.99;51.19;104128.56;5006681;28;20258;-55
2021/12/17 01:09:12;;;;;;;7.72;5.38;;;;;;;17.98;50.42;104124.13;5004596;28;20061;-54
2021/12/17 01:11:39;;;;;;;8.07;5.47;;;;;;;17.98;50.46;104122.31;5004739;28;20449;-55
2021/12/17 01:14:06;;;;;;;6.38;4.65;;;;;;;17.97;50.77;104133.16;5005694;28;20058;-56
2021/12/17 01:16:33;;;;;;;7.30;4.70;;;;;;;17.97;50.76;104141.19;5006945;28;20457;-56
2021/12/17 01:19:19;;;;;;;6.63;4.65;;;;;;;17.95;50.63;104138.56;5005352;28;20041;-56
2021/12/17 01:35:21;;;;;;;7.80;4.82;;;;;;;17.92;50.88;104125.28;5008911;28;20060;-55
2021/12/17 01:39:42;;;;;;;7.70;5.00;;;;;;;17.89;50.58;104129.91;5012125;28;20060;-55
2021/12/17 01:43:16;;;;;;;6.63;4.47;;;;;;;17.90;50.81;104143.28;5005991;28;20168;-55
2021/12/17 01:45:43;;;;;;;6.45;4.20;;;;;;;17.90;50.81;104139.75;5011421;28;20146;-56
2021/12/17 01:48:16;;;;;;;6.45;4.20;;;;;;;17.88;50.76;104138.91;5006170;28;20086;-55
2021/12/17 01:59:25;;;;;;;6.45;4.55;;;;;;;17.88;50.58;104146.97;5006442;28;20140;-55
2021/12/17 02:01:59;;;;;;;7.90;5.03;;;;;;;17.87;50.91;104148.78;5007336;28;20140;-54
2021/12/17 02:04:26;;;;;;;6.75;4.47;;;;;;;17.87;50.90;104147.91;5008102;28;20056;-56
2021/12/17 02:06:53;;;;;;;7.22;4.35;;;;;;;17.86;50.63;104148.88;5009852;28;20108;-55
2021/12/17 02:09:56;;;;;;;6.85;4.30;;;;;;;17.87;50.39;104153.28;5010166;28;20052;-55
2021/12/17 02:12:26;;;;;;;7.00;4.43;;;;;;;17.86;50.74;104141.69;5005622;28;20134;-53
2021/12/17 02:28:48;;;;;;;6.82;4.50;;;;;;;17.83;50.73;104141.81;5007867;28;20052;-57
2021/12/17 02:31:34;;;;;;;8.77;4.95;;;;;;;17.82;50.36;104148.16;5007322;28;20129;-57
2021/12/17 02:34:25;;;;;;;7.85;4.78;;;;;;;17.83;50.54;104151.69;5008786;28;20042;-57
2021/12/17 02:36:53;;;;;;;8.27;5.57;;;;;;;17.82;50.83;104141.91;5008010;28;20056;-55
2021/12/17 02:39:53;;;;;;;7.82;5.22;;;;;;;17.81;50.79;104151.78;5007202;28;20404;-56
2021/12/17 02:47:41;;;;;;;9.85;5.53;;;;;;;17.80;50.62;104151.84;5011931;28;20054;-55
2021/12/17 02:50:09;;;;;;;9.52;5.68;;;;;;;17.79;50.85;104152.78;5007639;28;20062;-55
2021/12/17 02:52:37;;;;;;;9.25;5.82;;;;;;;17.79;51.29;104152.78;5002591;28;20053;-56
2021/12/17 02:55:06;;;;;;;7.85;5.10;;;;;;;17.78;50.76;104134.94;5007240;28;20117;-55
2021/12/17 02:57:34;;;;;;;8.07;5.28;;;;;;;17.78;50.93;104141.19;5005392;28;20136;-54
2021/12/17 03:00:08;;;;;;;7.32;5.03;;;;;;;17.77;51.00;104139.44;5006830;28;20060;-57
2021/12/17 03:02:38;;;;;;;9.20;5.40;;;;;;;17.76;50.78;104138.53;5008463;28;20044;-56
2021/12/17 03:05:06;;;;;;;8.85;5.60;;;;;;;17.76;51.15;104135.00;5006664;28;20069;-56
2021/12/17 03:07:36;;;;;;;9.13;5.90;;;;;;;17.76;50.77;104135.00;5005582;28;20056;-56
2021/12/17 03:10:06;;;;;;;10.38;5.80;;;;;;;17.76;50.97;104135.00;5005846;28;20050;-57
2021/12/17 03:26:02;;;;;;;9.57;6.38;;;;;;;17.73;50.70;104130.63;5005239;28;20046;-55
2021/12/17 03:28:30;;;;;;;9.98;6.00;;;;;;;17.72;50.96;104139.59;5005545;28;20387;-57
2021/12/17 03:30:58;;;;;;;8.65;5.55;;;;;;;17.73;51.09;104127.09;5007264;28;20532;-57
2021/12/17 03:33:24;;;;;;;9.25;6.00;;;;;;;17.73;50.67;104136.00;5006793;28;20046;-57
2021/12/17 03:35:52;;;;;;;10.40;6.28;;;;;;;17.72;50.39;104131.56;5006464;28;20048;-57
2021/12/17 03:38:19;;;;;;;9.82;5.82;;;;;;;17.72;50.71;104134.22;5003812;28;20045;-55
2021/12/17 03:40:47;;;;;;;9.55;5.68;;;;;;;17.72;50.91;104144.09;5007507;28;20136;-57
2021/12/17 03:43:21;;;;;;;9.57;5.18;;;;;;;17.71;50.52;104142.38;5004194;28;20062;-57
2021/12/17 03:45:48;;;;;;;9.73;5.97;;;;;;;17.71;50.53;104140.56;5006125;28;20041;-57
2021/12/17 03:48:15;;;;;;;9.45;5.97;;;;;;;17.71;50.91;104137.00;5008253;28;20136;-57
2021/12/17 03:50:42;;;;;;;9.95;6.15;;;;;;;17.71;50.87;104142.38;5005207;28;20500;-57
2021/12/17 03:53:09;;;;;;;10.40;5.80;;;;;;;17.70;50.44;104135.28;5003510;28;20054;-55
2021/12/17 03:55:36;;;;;;;10.02;6.28;;;;;;;17.69;50.74;104134.41;5004880;28;20042;-57
2021/12/17 03:58:02;;;;;;;11.45;6.15;;;;;;;17.68;50.70;104138.00;5006599;28;20054;-57
2021/12/17 04:00:30;;;;;;;11.50;7.03;;;;;;;17.69;50.40;104134.41;5007897;28;20445;-57
2021/12/17 04:02:57;;;;;;;10.13;5.78;;;;;;;17.68;50.77;104131.78;5005811;28;20320;-57
2021/12/17 04:05:25;;;;;;;9.70;5.97;;;;;;;17.68;50.89;104129.94;5005115;28;20094;-56
2021/12/17 04:07:51;;;;;;;10.05;5.95;;;;;;;17.68;50.96;104132.63;5006076;28;20132;-57
2021/12/17 04:10:18;;;;;;;11.10;6.55;;;;;;;17.68;50.59;104127.28;5004794;28;20046;-56
2021/12/17 04:12:59;;;;;;;9.73;6.07;;;;;;;17.69;50.66;104130.84;5005147;28;20046;-56
2021/12/17 04:15:36;;;;;;;12.30;6.28;;;;;;;17.68;51.09;104134.44;5004733;28;20037;-56
2021/12/17 04:18:07;;;;;;;8.15;5.65;;;;;;;17.67;50.75;104128.22;5006172;28;20052;-57
2021/12/17 04:20:34;;;;;;;9.75;5.63;;;;;;;17.67;50.91;104125.53;5005995;28;20046;-56
2021/12/17 04:23:01;;;;;;;11.32;6.13;;;;;;;17.66;50.34;104125.63;5001850;28;20046;-56
2021/12/17 04:25:30;;;;;;;10.00;6.28;;;;;;;17.66;50.93;104126.50;5007601;28;20048;-56
2021/12/17 04:27:58;;;;;;;10.60;6.38;;;;;;;17.65;50.72;104124.75;5003959;28;20053;-57
2021/12/17 04:30:25;;;;;;;9.77;5.95;;;;;;;17.65;50.95;104131.94;5003251;28;20077;-59
2021/12/17 04:32:52;;;;;;;8.85;6.03;;;;;;;17.65;51.23;104130.13;5005502;28;20078;-56
2021/12/17 04:35:19;;;;;;;10.35;6.30;;;;;;;17.65;51.17;104137.31;5005795;28;20434;-57
2021/12/17 04:37:46;;;;;;;8.82;5.65;;;;;;;17.65;51.02;104131.94;5006670;28;20064;-57
2021/12/17 04:40:12;;;;;;;8.25;5.70;;;;;;;17.63;50.93;104137.34;5006803;28;20149;-56
2021/12/17 04:43:00;;;;;;;9.30;5.55;;;;;;;17.65;50.84;104131.94;5003233;28;20046;-57
2021/12/17 04:45:26;;;;;;;9.63;5.95;;;;;;;17.63;50.96;104134.66;5003377;28;20056;-57
2021/12/17 04:58:55;;;;;;;10.52;6.63;;;;;;;17.79;50.91;104126.81;5009353;28;20102;-57
2021/12/17 05:01:22;;;;;;;9.32;5.93;;;;;;;17.85;50.64;104129.22;5012540;28;20569;-58
2021/12/17 05:03:48;;;;;;;8.80;5.30;;;;;;;17.91;50.60;104134.28;5010091;28;20058;-57
2021/12/17 05:06:18;;;;;;;12.70;7.00;;;;;;;17.95;50.57;104133.19;5010364;28;20050;-57
2021/12/17 05:08:45;;;;;;;9.25;5.70;;;;;;;17.99;50.45;104144.66;5012138;28;20128;-58
2021/12/17 05:11:37;;;;;;;10.45;6.75;;;;;;;18.03;50.45;104138.19;5010638;28;20060;-57
2021/12/17 05:19:50;;;;;;;11.77;7.13;;;;;;;18.14;50.35;104141.25;5012434;28;20061;-57
2021/12/17 05:22:18;;;;;;;12.27;7.45;;;;;;;18.19;50.39;104143.72;5008868;28;20045;-57
2021/12/17 05:24:44;;;;;;;15.90;8.30;;;;;;;18.22;50.47;104147.13;5010685;28;20050;-57
2021/12/17 05:27:11;;;;;;;14.25;8.27;;;;;;;18.27;50.20;104146.03;5010441;28;20148;-58
2021/12/17 05:29:38;;;;;;;14.38;8.23;;;;;;;18.31;50.20;104136.88;5009208;28;20060;-57
2021/12/17 05:32:05;;;;;;;16.55;9.85;;;;;;;18.33;49.85;104141.22;5009734;28;20042;-57
2021/12/17 05:34:31;;;;;;;18.45;10.63;;;;;;;18.36;49.92;104148.25;5011817;28;20056;-58
2021/12/17 05:36:58;;;;;;;17.65;9.63;;;;;;;18.38;50.06;104149.06;5008529;28;20046;-57
2021/12/17 05:39:24;;;;;;;19.85;9.73;;;;;;;18.40;50.20;104149.84;5009885;28;20089;-58
2021/12/17 05:41:52;;;;;;;17.77;10.30;;;;;;;18.41;49.55;104155.16;5009460;28;20429;-57
2021/12/17 05:44:20;;;;;;;17.60;10.32;;;;;;;18.42;49.70;104134.53;5009961;28;20696;-57
2021/12/17 05:46:49;;;;;;;22.13;11.40;;;;;;;18.42;49.69;104139.91;5009492;28;20050;-57
2021/12/17 05:49:18;;;;;;;21.23;11.07;;;;;;;18.43;49.50;104141.63;5010920;28;20098;-57
2021/12/17 05:51:45;;;;;;;19.67;10.93;;;;;;;18.42;49.82;104138.09;5012438;28;20050;-58
2021/12/17 05:54:12;;;;;;;22.40;11.32;;;;;;;18.43;49.58;104147.00;5009100;28;20065;-57
2021/12/17 05:56:40;;;;;;;19.65;10.75;;;;;;;18.42;49.61;104150.66;5009151;28;20425;-57
2021/12/17 05:59:07;;;;;;;19.63;11.75;;;;;;;18.40;49.47;104152.53;5011638;28;20139;-57
2021/12/17 06:01:33;;;;;;;20.63;11.32;;;;;;;18.40;49.73;104148.03;5009528;28;20145;-57
2021/12/17 06:04:00;;;;;;;18.95;11.23;;;;;;;18.39;49.42;104156.16;5009929;28;20050;-57
2021/12/17 06:06:33;;;;;;;20.05;11.52;;;;;;;18.38;49.58;104155.31;5009586;28;20042;-57
2021/12/17 06:09:05;;;;;;;19.63;11.67;;;;;;;18.38;49.79;104157.13;5007466;28;20060;-57
2021/12/17 06:11:33;;;;;;;21.02;11.68;;;;;;;18.37;49.78;104160.72;5007518;28;20984;-58
2021/12/17 06:14:00;;;;;;;21.30;12.27;;;;;;;18.35;49.78;104154.56;5011802;28;20050;-56
2021/12/17 06:16:27;;;;;;;21.15;11.63;;;;;;;18.34;49.91;104159.09;5008209;28;20065;-58
2021/12/17 06:18:54;;;;;;;18.85;11.10;;;;;;;18.33;49.78;104153.75;5007493;28;20141;-58
2021/12/17 06:21:22;;;;;;;19.92;11.63;;;;;;;18.33;49.99;104148.41;5007328;28;20052;-58
2021/12/17 06:23:48;;;;;;;21.25;11.93;;;;;;;18.30;49.98;104156.63;5009689;28;20054;-58
2021/12/17 06:26:15;;;;;;;20.83;10.77;;;;;;;18.30;50.05;104160.19;5007065;28;20136;-58
2021/12/17 06:28:42;;;;;;;22.73;11.80;;;;;;;18.28;49.97;104154.00;5007642;28;21272;-58
2021/12/17 06:31:08;;;;;;;20.92;12.40;;;;;;;18.28;49.84;104158.50;5008717;28;20060;-58
2021/12/17 06:33:35;;;;;;;19.70;11.02;;;;;;;18.25;49.71;104165.78;5007059;28;20042;-57
2021/12/17 06:36:01;;;;;;;20.95;11.13;;;;;;;18.24;49.88;104165.81;5006382;28;20046;-58
2021/12/17 06:38:28;;;;;;;20.95;11.68;;;;;;;18.23;50.18;104166.78;5007508;28;20344;-58
2021/12/17 06:40:57;;;;;;;19.58;11.45;;;;;;;18.22;50.01;104162.38;5007158;28;20046;-58
2021/12/17 06:43:30;;;;;;;18.33;10.52;;;;;;;18.20;49.67;104175.84;5004913;28;20054;-57
2021/12/17 06:46:12;;;;;;;19.27;10.90;;;;;;;18.19;49.67;104181.28;5008555;28;20053;-57
2021/12/17 06:48:38;;;;;;;18.55;10.65;;;;;;;18.18;49.91;104175.06;5007841;28;20054;-57
2021/12/17 07:08:37;;;;;;;20.55;11.45;;;;;;;18.05;50.18;104179.28;5006502;28;20049;-58
2021/12/17 07:10:44;;;;;;;17.40;10.15;;;;;;;18.04;49.80;104182.88;5006099;28;20349;-58
2021/12/17 07:34:11;;;;;;;19.08;10.93;;;;;;;17.92;50.12;104188.81;5003836;28;20137;-58
2021/12/17 07:36:41;;;;;;;18.08;10.25;;;;;;;17.89;50.70;104183.59;5007745;28;20046;-58
2021/12/17 07:39:08;;;;;;;17.65;9.45;;;;;;;17.89;50.10;104186.28;5006368;28;20384;-58
2021/12/17 07:41:35;;;;;;;18.48;10.75;;;;;;;17.87;50.51;104188.19;5005840;28;20052;-58
2021/12/17 07:44:02;;;;;;;16.80;9.85;;;;;;;17.86;50.43;104199.84;5004833;28;20050;-58
2021/12/17 07:46:29;;;;;;;15.98;9.30;;;;;;;17.85;50.39;104199.00;5007324;28;20046;-58
2021/12/17 07:48:56;;;;;;;16.77;9.50;;;;;;;17.84;50.28;104197.22;5006610;28;20426;-58
2021/12/17 07:51:24;;;;;;;16.73;10.35;;;;;;;17.83;50.54;104208.03;5006716;28;20104;-58
2021/12/17 07:53:51;;;;;;;17.98;9.95;;;;;;;17.82;50.76;104195.56;5008233;28;20133;-58
2021/12/17 07:56:20;;;;;;;15.63;9.15;;;;;;;17.81;50.46;104208.13;5005254;28;20062;-57
2021/12/17 07:58:47;;;;;;;16.58;9.77;;;;;;;17.80;50.52;104225.13;5004807;28;20075;-57
2021/12/17 08:01:13;;;;;;;17.33;9.43;;;;;;;17.80;50.74;104208.19;5008646;28;20146;-59
2021/12/17 08:03:41;;;;;;;16.95;9.60;;;;;;;17.78;50.40;104202.88;5007492;28;20054;-59
2021/12/17 08:06:08;;;;;;;16.63;10.02;;;;;;;17.78;50.78;104210.06;5004451;28;20050;-57
2021/12/17 08:08:34;;;;;;;16.77;10.13;;;;;;;17.77;50.70;104217.25;5005826;28;20082;-59
2021/12/17 08:11:02;;;;;;;17.17;9.30;;;;;;;17.76;50.38;104204.75;5006705;28;20164;-58
2021/12/17 08:13:32;;;;;;;15.10;9.13;;;;;;;17.76;50.64;104213.66;5003218;28;20081;-59
2021/12/17 08:18:48;;;;;;;17.65;9.52;;;;;;;17.74;50.52;104210.22;5006528;28;20073;-58
2021/12/17 08:31:35;;;;;;;14.73;8.88;;;;;;;17.72;50.63;104213.84;5004903;28;20676;-58
2021/12/17 08:34:03;;;;;;;16.23;9.07;;;;;;;17.71;50.58;104215.66;5005537;28;20636;-58
2021/12/17 08:36:30;;;;;;;14.27;8.88;;;;;;;17.71;50.47;104204.06;5007929;28;20357;-56
2021/12/17 08:38:57;;;;;;;16.88;9.55;;;;;;;17.71;50.63;104206.75;5005082;28;20125;-58
2021/12/17 08:41:26;;;;;;;14.85;9.00;;;;;;;17.70;50.76;104213.94;5002976;28;20136;-58
2021/12/17 08:43:53;;;;;;;14.52;8.15;;;;;;;17.70;50.94;104210.38;5005095;28;20052;-58
2021/12/17 08:46:19;;;;;;;13.95;8.55;;;;;;;17.69;50.81;104214.88;5006351;28;20081;-58
2021/12/17 08:48:46;;;;;;;14.07;8.07;;;;;;;17.68;50.92;104213.13;5005429;28;20060;-58
2021/12/17 08:51:12;;;;;;;14.45;8.50;;;;;;;17.70;50.92;104221.97;5006158;28;20129;-57
2021/12/17 08:53:39;;;;;;;14.20;8.68;;;;;;;17.68;50.64;104221.16;5007578;28;20058;-58
2021/12/17 08:56:06;;;;;;;13.50;7.97;;;;;;;17.68;50.52;104221.16;5003481;28;20141;-56
2021/12/17 08:58:34;;;;;;;13.95;8.00;;;;;;;17.69;51.03;104224.75;5005479;28;20137;-57
2021/12/17 09:01:05;;;;;;;13.75;7.88;;;;;;;17.69;50.89;104225.63;5008015;28;20049;-57
2021/12/17 09:03:32;;;;;;;13.20;8.07;;;;;;;17.68;50.90;104220.28;5003731;28;20105;-57
2021/12/17 09:06:00;;;;;;;12.65;8.27;;;;;;;17.67;50.72;104222.13;5003845;28;20042;-57
2021/12/17 09:08:27;;;;;;;15.43;8.15;;;;;;;17.67;50.52;104222.13;5003171;28;20062;-57
2021/12/17 09:10:55;;;;;;;13.93;8.25;;;;;;;17.66;50.47;104225.75;5005677;28;20096;-56
2021/12/17 09:13:26;;;;;;;14.38;8.10;;;;;;;17.66;50.49;104220.38;5004402;28;20058;-57
2021/12/17 09:15:59;;;;;;;13.40;8.00;;;;;;;17.67;50.74;104222.13;5006957;28;20129;-57
2021/12/17 09:18:25;;;;;;;12.30;7.43;;;;;;;17.67;50.46;104226.63;5005770;28;20129;-57
2021/12/17 09:20:52;;;;;;;12.95;7.88;;;;;;;17.66;50.86;104222.19;5004522;28;20125;-58
2021/12/17 09:23:19;;;;;;;12.77;8.10;;;;;;;17.65;51.01;104218.66;5003226;28;20092;-57
2021/12/17 09:25:52;;;;;;;12.35;7.68;;;;;;;17.66;50.63;104228.44;5003937;28;20330;-56
2021/12/17 09:28:19;;;;;;;12.73;7.50;;;;;;;17.66;51.09;104220.38;5004240;28;20050;-56
2021/12/17 09:30:46;;;;;;;13.13;7.70;;;;;;;17.66;51.06;104227.56;5002003;28;20077;-57
2021/12/17 09:33:12;;;;;;;11.32;7.22;;;;;;;17.66;50.92;104225.75;5009050;28;20132;-58
2021/12/17 09:35:39;;;;;;;12.50;7.18;;;;;;;17.66;51.11;104239.16;5005428;28;20389;-57
2021/12/17 09:38:06;;;;;;;14.13;7.65;;;;;;;17.66;50.75;104227.56;5004248;28;20046;-57
2021/12/17 09:40:33;;;;;;;12.23;6.95;;;;;;;17.64;50.79;104226.75;5006621;28;20441;-57
2021/12/17 09:42:59;;;;;;;11.57;6.93;;;;;;;17.65;50.95;104233.88;5005602;28;20095;-57
2021/12/17 09:45:26;;;;;;;11.85;6.78;;;;;;;17.65;50.91;104247.28;5008185;28;20129;-57
2021/12/17 09:47:54;;;;;;;12.18;7.15;;;;;;;17.64;51.14;104246.38;5009548;28;20150;-56
2021/12/17 09:50:22;;;;;;;12.15;7.22;;;;;;;17.64;50.84;104259.81;5007546;28;20098;-57
2021/12/17 09:52:50;;;;;;;10.23;6.30;;;;;;;17.64;50.84;104253.56;5009000;28;20054;-57
2021/12/17 09:55:16;;;;;;;13.32;7.57;;;;;;;17.62;51.11;104259.00;5009595;28;20092;-58
2021/12/17 09:57:43;;;;;;;12.20;6.65;;;;;;;17.63;51.10;104260.75;5007815;28;20346;-57
2021/12/17 10:00:19;;;;;;;12.30;6.80;;;;;;;17.62;50.80;104267.06;5006220;28;20064;-57
2021/12/17 10:02:48;;;;;;;9.93;6.63;;;;;;;17.62;50.81;104271.56;5008519;28;20049;-58
2021/12/17 10:05:25;;;;;;;12.18;6.97;;;;;;;17.60;51.09;104276.97;5007385;28;20057;-58
2021/12/17 10:08:01;;;;;;;12.38;7.03;;;;;;;17.61;51.09;104277.84;5008219;28;20141;-58
2021/12/17 10:10:41;;;;;;;11.23;6.50;;;;;;;17.61;51.21;104272.47;5008650;28;20060;-58
2021/12/17 10:13:28;;;;;;;13.00;7.00;;;;;;;17.61;50.90;104280.50;5004077;28;20046;-58
2021/12/17 10:16:07;;;;;;;12.27;6.97;;;;;;;17.60;50.80;104273.41;5003674;28;20489;-58
2021/12/17 10:18:39;;;;;;;12.00;7.03;;;;;;;17.60;50.96;104268.06;5001149;28;20060;-57
2021/12/17 10:21:20;;;;;;;12.30;7.00;;;;;;;17.59;50.78;104277.91;5003384;28;20129;-58
2021/12/17 10:23:46;;;;;;;11.10;6.68;;;;;;;17.59;51.25;104275.22;5008619;28;20041;-58
2021/12/17 10:26:15;;;;;;;12.57;7.32;;;;;;;17.58;50.81;104276.19;5001634;28;20141;-58
2021/12/17 10:29:03;;;;;;;11.68;6.70;;;;;;;17.58;51.07;104267.25;5003597;28;20056;-57
2021/12/17 10:31:31;;;;;;;10.80;6.30;;;;;;;17.58;50.94;104278.84;5005855;28;20136;-57
2021/12/17 10:34:00;;;;;;;11.02;6.68;;;;;;;17.57;50.90;104279.81;5001915;28;20080;-56
2021/12/17 10:36:30;;;;;;;11.05;5.97;;;;;;;17.57;51.14;104274.44;5004049;28;20042;-57
2021/12/17 10:39:25;;;;;;;12.10;7.00;;;;;;;17.57;50.91;104277.13;5001002;28;20049;-57
2021/12/17 10:41:52;;;;;;;11.85;7.03;;;;;;;17.56;50.69;104272.69;5000737;28;20137;-57
2021/12/17 10:44:23;;;;;;;12.45;6.80;;;;;;;17.56;50.81;104272.69;5003417;28;20046;-57
2021/12/17 10:49:34;;;;;;;11.00;6.82;;;;;;;17.55;50.58;104265.56;5003684;28;20049;-57
2021/12/17 10:52:14;;;;;;;11.43;6.47;;;;;;;17.54;50.78;104274.56;5002503;28;20046;-57
2021/12/17 10:54:42;;;;;;;11.40;6.30;;;;;;;17.55;50.98;104276.31;5005723;28;20046;-57
2021/12/17 10:57:09;;;;;;;10.30;5.93;;;;;;;17.54;50.81;104263.84;5005020;28;20140;-57
2021/12/17 10:59:36;;;;;;;12.02;6.72;;;;;;;17.54;51.17;104268.34;5003964;28;20407;-56
2021/12/17 11:02:10;;;;;;;11.48;7.15;;;;;;;17.57;50.98;104265.50;5003821;28;20053;-57
2021/12/17 11:04:43;;;;;;;11.98;6.72;;;;;;;17.62;50.97;104267.06;5003324;28;20049;-57
2021/12/17 11:07:13;;;;;;;10.80;6.55;;;;;;;17.68;50.99;104264.09;5000988;28;20041;-57
2021/12/17 11:09:54;;;;;;;11.25;6.28;;;;;;;17.75;50.62;104268.28;5003329;28;20057;-57
2021/12/17 11:12:41;;;;;;;11.23;7.05;;;;;;;17.86;50.49;104266.94;4999450;28;20054;-58
2021/12/17 11:15:12;;;;;;;14.10;7.97;;;;;;;17.94;50.58;104259.41;5004188;28;20049;-57
2021/12/17 11:17:41;;;;;;;13.23;7.50;;;;;;;18.05;50.16;104269.66;5005399;28;20081;-57
2021/12/17 11:20:15;;;;;;;15.18;8.70;;;;;;;18.14;50.26;104274.63;5006478;28;20038;-57
2021/12/17 11:22:43;;;;;;;16.95;9.75;;;;;;;18.22;50.36;104265.25;5001690;28;20364;-57
2021/12/17 11:25:11;;;;;;;17.98;10.27;;;;;;;18.31;50.34;104268.47;5004569;28;20132;-57
2021/12/17 11:27:38;;;;;;;15.70;9.20;;;;;;;18.39;49.93;104263.59;5001525;28;20050;-58
2021/12/17 11:30:12;;;;;;;17.77;10.05;;;;;;;18.45;50.14;104263.28;5003121;28;20060;-58
2021/12/17 11:32:38;;;;;;;;;;;;;;;18.52;50.00;104259.38;5005397;28;20145;-59
2021/12/17 11:35:06;;;;;;;17.80;9.93;;;;;;;18.59;49.56;104252.75;5002230;28;19929;-58
2021/12/17 11:37:34;;;;;;;17.75;10.07;;;;;;;18.65;49.78;104255.16;5001305;28;20105;-59
2021/12/17 11:40:09;;;;;;;15.43;9.35;;;;;;;18.69;49.62;104256.75;5003478;28;20097;-58
2021/12/17 11:42:54;;;;;;;19.70;11.35;;;;;;;18.76;49.41;104245.72;4999881;28;20056;-58
2021/12/17 11:45:26;;;;;;;18.58;10.45;;;;;;;18.80;49.21;104242.81;5001235;28;20182;-58
2021/12/17 11:47:57;;;;;;;19.48;10.82;;;;;;;18.86;49.25;104247.91;5000823;28;20043;-58
2021/12/17 11:50:24;;;;;;;18.92;11.10;;;;;;;18.89;49.50;104249.53;4999681;28;20054;-57
2021/12/17 11:52:53;;;;;;;20.88;11.20;;;;;;;18.94;49.27;104247.53;5004261;28;20056;-58
2021/12/17 11:55:20;;;;;;;21.13;11.93;;;;;;;18.98;48.80;104257.16;5001751;28;20053;-59
2021/12/17 11:57:49;;;;;;;17.90;10.70;;;;;;;19.01;49.13;104257.00;4998394;28;20046;-58
2021/12/17 12:00:22;;;;;;;19.13;10.15;;;;;;;19.04;48.68;104256.84;5006583;28;20096;-58
2021/12/17 12:02:50;;;;;;;19.63;10.90;;;;;;;19.07;49.19;104262.06;4998626;28;20080;-58
2021/12/17 12:05:44;;;;;;;20.45;11.27;;;;;;;19.10;49.03;104259.25;5000547;28;20046;-58
2021/12/17 12:08:47;;;;;;;22.00;11.55;;;;;;;19.14;49.14;104263.50;4998702;28;20042;-58
2021/12/17 12:11:17;;;;;;;21.42;11.40;;;;;;;19.18;48.72;104262.41;4998961;28;20145;-58
2021/12/17 12:13:49;;;;;;;21.30;11.07;;;;;;;19.21;48.53;104264.06;4997091;28;20121;-58
2021/12/17 12:16:20;;;;;;;21.43;12.30;;;;;;;19.23;48.74;104265.72;5004065;28;20249;-58
2021/12/17 12:18:49;;;;;;;22.58;11.77;;;;;;;19.27;48.58;104273.66;5001810;28;20046;-59
2021/12/17 12:21:21;;;;;;;20.27;11.52;;;;;;;19.29;48.38;104260.97;5000333;28;20508;-58
2021/12/17 12:24:13;;;;;;;20.13;11.25;;;;;;;19.31;48.65;104267.16;5003158;28;20054;-58
2021/12/17 12:26:48;;;;;;;21.88;12.18;;;;;;;19.33;49.02;104259.88;4998124;28;20071;-59
2021/12/17 12:29:24;;;;;;;21.95;12.00;;;;;;;19.35;48.92;104260.69;4998517;28;20137;-58
2021/12/17 12:31:59;;;;;;;19.40;10.93;;;;;;;19.37;48.91;104254.25;5003401;28;20056;-59
2021/12/17 12:34:35;;;;;;;22.20;12.23;;;;;;;19.40;48.89;104247.84;5004313;28;20128;-59
2021/12/17 12:37:10;;;;;;;20.60;11.48;;;;;;;19.42;48.52;104244.16;5001961;28;20053;-59
2021/12/17 12:39:43;;;;;;;21.92;12.07;;;;;;;19.44;48.52;104250.28;4998849;28;20048;-59
2021/12/17 12:42:35;;;;;;;21.27;12.45;;;;;;;19.45;48.39;104240.41;4999792;28;20049;-58
2021/12/17 12:45:06;;;;;;;20.52;11.60;;;;;;;19.48;48.21;104241.13;5001788;28;20144;-58
2021/12/17 12:47:35;;;;;;;19.17;11.43;;;;;;;19.50;48.22;104235.69;5002673;28;20133;-58
2021/12/17 12:50:02;;;;;;;21.25;12.05;;;;;;;19.52;48.32;104236.44;4998081;28;20054;-58
2021/12/17 12:52:29;;;;;;;20.45;11.10;;;;;;;19.54;48.23;104241.72;5002292;28;20136;-58
2021/12/17 12:54:59;;;;;;;19.90;11.27;;;;;;;19.55;48.88;104230.91;5000395;28;20468;-59
2021/12/17 12:57:32;;;;;;;20.75;11.50;;;;;;;19.56;48.74;104226.41;4999051;28;20060;-58
2021/12/17 13:00:06;;;;;;;21.45;11.60;;;;;;;19.57;48.59;104223.63;5004344;28;20068;-59
2021/12/17 13:02:33;;;;;;;20.13;11.88;;;;;;;19.60;48.42;104220.75;5001348;28;20049;-59
2021/12/17 13:05:00;;;;;;;20.40;11.43;;;;;;;19.62;48.19;104220.75;5003335;28;20182;-58
2021/12/17 13:07:41;;;;;;;22.42;12.10;;;;;;;19.63;48.74;104220.63;4998825;28;20052;-58
2021/12/17 13:10:12;;;;;;;18.63;11.43;;;;;;;19.65;48.21;104221.41;5000581;28;20054;-58
2021/12/17 13:12:40;;;;;;;20.83;11.63;;;;;;;19.67;48.34;104218.66;4996574;28;20124;-58
2021/12/17 13:15:31;;;;;;;19.95;11.70;;;;;;;19.67;48.54;104219.53;5002543;28;20060;-58
2021/12/17 13:24:21;;;;;;;20.98;11.80;;;;;;;19.73;48.53;104216.50;5003423;28;20048;-58
2021/12/17 13:26:53;;;;;;;25.38;14.00;;;;;;;19.75;48.08;104219.13;5000303;28;20130;-58
2021/12/17 13:29:34;;;;;;;23.65;13.20;;;;;;;19.77;48.36;104221.72;5004377;28;20467;-58
2021/12/17 13:32:03;;;;;;;21.73;11.82;;;;;;;19.79;47.87;104217.13;5006875;28;20573;-58
2021/12/17 13:34:36;;;;;;;22.90;12.65;;;;;;;19.79;47.82;104219.81;5006437;28;20569;-59
2021/12/17 13:37:16;;;;;;;22.67;12.35;;;;;;;19.81;48.46;104220.59;5004859;28;20050;-58
2021/12/17 13:39:54;;;;;;;26.15;13.85;;;;;;;19.82;47.81;104215.16;5007050;28;20053;-58
2021/12/17 13:42:30;;;;;;;22.83;12.20;;;;;;;19.83;47.88;104214.19;5005938;28;20498;-58
2021/12/17 13:45:00;;;;;;;24.60;13.40;;;;;;;19.85;48.01;104211.41;5002762;28;20072;-58
2021/12/17 13:47:35;;;;;;;27.80;15.05;;;;;;;19.86;48.35;104199.66;5006963;28;20132;-58
2021/12/17 13:50:11;;;;;;;27.15;16.00;;;;;;;19.87;48.47;104209.50;5001408;28;20056;-59
2021/12/17 13:52:54;;;;;;;24.75;14.50;;;;;;;19.87;48.33;104199.59;5001311;28;20441;-59
2021/12/17 13:55:27;;;;;;;25.67;14.13;;;;;;;19.89;48.04;104202.19;5003052;28;20107;-59
2021/12/17 13:57:56;;;;;;;28.08;15.52;;;;;;;19.90;47.62;104198.53;5006787;28;20046;-59
2021/12/17 14:00:30;;;;;;;22.67;13.68;;;;;;;19.92;48.30;104202.03;5005768;28;20135;-58
2021/12/17 14:02:58;;;;;;;29.23;15.65;;;;;;;19.93;47.97;104201.06;5005811;28;20513;-59
2021/12/17 14:05:29;;;;;;;25.42;14.48;;;;;;;19.94;48.30;104205.53;5003253;28;20082;-58
2021/12/17 14:07:59;;;;;;;26.60;14.57;;;;;;;19.96;48.19;104217.06;5009460;28;20125;-59
2021/12/17 14:10:30;;;;;;;27.70;14.85;;;;;;;19.96;48.10;104215.25;5005048;28;20405;-58
2021/12/17 14:12:56;;;;;;;26.20;14.95;;;;;;;19.97;48.21;104216.97;5008516;28;20045;-59
2021/12/17 14:15:44;;;;;;;26.55;14.75;;;;;;;19.99;47.67;104222.31;5003920;28;20046;-58
2021/12/17 14:18:15;;;;;;;26.60;15.32;;;;;;;20.00;47.88;104223.16;5004983;28;20053;-59
2021/12/17 14:20:52;;;;;;;29.58;15.93;;;;;;;20.01;48.42;104214.13;5007528;28;20074;-58